createdAt,value
2017-12-24T00:00:08.000Z,7.20
2017-12-24T00:01:12.636Z,7.12
2017-12-24T00:02:17.368Z,7.13
2017-12-24T00:03:22.053Z,7.21
2017-12-24T00:04:26.773Z,7.13
2017-12-24T00:05:31.941Z,7.09
2017-12-24T00:06:36.662Z,7.12
2017-12-24T00:07:41.309Z,7.12
2017-12-24T00:08:46.145Z,7.14
2017-12-24T00:09:51.749Z,7.15
2017-12-24T00:10:56.494Z,7.09
2017-12-24T00:12:01.655Z,7.08
2017-12-24T00:13:06.341Z,7.08
2017-12-24T00:14:11.162Z,7.04
2017-12-24T00:15:15.856Z,7.01
2017-12-24T00:16:20.591Z,7.06
2017-12-24T00:17:25.150Z,7.15
2017-12-24T00:18:30.045Z,7.07
2017-12-24T00:19:34.684Z,7.11
2017-12-24T00:20:39.364Z,7.14
2017-12-24T00:21:44.015Z,7.15
2017-12-24T00:22:48.795Z,7.12
2017-12-24T00:23:53.554Z,7.19
2017-12-24T00:24:58.730Z,7.23
2017-12-24T00:26:03.438Z,7.28
2017-12-24T00:27:08.156Z,7.20
2017-12-24T00:28:13.758Z,7.22
2017-12-24T00:29:18.336Z,7.19
2017-12-24T00:30:22.996Z,7.14
2017-12-24T00:31:27.990Z,7.19
2017-12-24T00:32:32.631Z,7.13
2017-12-24T00:33:37.350Z,7.11
2017-12-24T00:34:42.032Z,7.18
2017-12-24T00:35:46.890Z,7.20
2017-12-24T00:36:51.576Z,7.19
2017-12-24T00:37:56.875Z,7.17
2017-12-24T00:39:01.775Z,7.13
2017-12-24T00:40:06.610Z,7.12
2017-12-24T00:41:11.266Z,7.07
2017-12-24T00:42:15.923Z,7.12
2017-12-24T00:43:21.221Z,7.13
2017-12-24T00:44:26.302Z,7.09
2017-12-24T00:45:30.925Z,7.06
2017-12-24T00:46:35.617Z,7.03
2017-12-24T00:47:40.320Z,7.09
2017-12-24T00:48:45.572Z,7.07
2017-12-24T00:49:50.320Z,7.08
2017-12-24T00:50:55.353Z,7.07
2017-12-24T00:52:00.047Z,7.11
2017-12-24T00:53:05.521Z,7.17
2017-12-24T00:54:10.260Z,7.10
2017-12-24T00:55:14.928Z,7.09
2017-12-24T00:56:19.581Z,7.10
2017-12-24T00:57:24.597Z,7.10
2017-12-24T00:58:29.362Z,7.12
2017-12-24T00:59:35.033Z,7.15
2017-12-24T01:00:39.850Z,7.14
2017-12-24T01:01:44.656Z,7.08
2017-12-24T01:02:49.449Z,7.13
2017-12-24T01:03:54.552Z,7.11
2017-12-24T01:04:59.414Z,7.12
2017-12-24T01:06:04.925Z,7.08
2017-12-24T01:07:09.750Z,7.03
2017-12-24T01:08:14.490Z,7.07
2017-12-24T01:09:19.206Z,7.13
2017-12-24T01:10:24.163Z,7.08
2017-12-24T01:11:28.802Z,7.14
2017-12-24T01:12:33.494Z,7.13
2017-12-24T01:13:38.107Z,7.14
2017-12-24T01:14:42.689Z,7.16
2017-12-24T01:15:47.399Z,7.15
2017-12-24T01:16:52.611Z,7.14
2017-12-24T01:17:57.392Z,7.10
2017-12-24T01:19:02.157Z,7.12
2017-12-24T01:20:06.924Z,7.14
2017-12-24T01:21:12.484Z,7.07
2017-12-24T01:22:17.120Z,7.09
2017-12-24T01:23:22.104Z,7.05
2017-12-24T01:24:26.902Z,7.04
2017-12-24T01:25:31.454Z,6.97
2017-12-24T01:26:36.048Z,7.09
2017-12-24T01:27:40.702Z,7.05
2017-12-24T01:28:45.566Z,7.09
2017-12-24T01:29:50.805Z,7.00
2017-12-24T01:30:55.464Z,7.04
2017-12-24T01:32:00.615Z,7.12
2017-12-24T01:33:05.251Z,7.01
2017-12-24T01:34:09.967Z,7.06
2017-12-24T01:35:14.621Z,6.99
2017-12-24T01:36:19.783Z,7.02
2017-12-24T01:37:24.479Z,7.09
2017-12-24T01:38:29.114Z,7.19
2017-12-24T01:39:33.833Z,7.13
2017-12-24T01:40:38.391Z,7.12
2017-12-24T01:41:43.010Z,7.12
2017-12-24T01:42:48.004Z,7.13
2017-12-24T01:43:52.646Z,7.05
2017-12-24T01:44:57.296Z,7.09
2017-12-24T01:46:02.031Z,7.13
2017-12-24T01:47:06.830Z,7.13
2017-12-24T01:48:11.470Z,7.08
2017-12-24T01:49:16.460Z,7.13
2017-12-24T01:50:21.124Z,7.09
2017-12-24T01:51:25.728Z,7.09
2017-12-24T01:52:30.961Z,7.12
2017-12-24T01:53:35.895Z,7.15
2017-12-24T01:54:40.580Z,7.11
2017-12-24T01:55:46.235Z,7.09
2017-12-24T01:56:51.259Z,7.14
2017-12-24T01:57:55.914Z,7.05
2017-12-24T01:59:00.573Z,7.09
2017-12-24T02:00:05.239Z,7.13
2017-12-24T02:01:09.897Z,7.09
2017-12-24T02:02:14.890Z,7.03
2017-12-24T02:03:19.586Z,7.05
2017-12-24T02:04:24.213Z,7.19
2017-12-24T02:05:29.064Z,7.10
2017-12-24T02:06:33.724Z,7.10
2017-12-24T02:07:38.479Z,7.10
2017-12-24T02:08:43.686Z,7.09
2017-12-24T02:09:48.454Z,7.01
2017-12-24T02:10:53.168Z,7.08
2017-12-24T02:11:59.146Z,7.13
2017-12-24T02:13:03.709Z,7.11
2017-12-24T02:14:08.220Z,7.05
2017-12-24T02:15:13.209Z,7.06
2017-12-24T02:16:17.984Z,7.03
2017-12-24T02:17:22.708Z,7.12
2017-12-24T02:18:27.467Z,7.10
2017-12-24T02:19:32.207Z,7.14
2017-12-24T02:20:36.956Z,7.15
2017-12-24T02:21:42.184Z,7.23
2017-12-24T02:22:46.884Z,7.28
2017-12-24T02:23:51.641Z,7.26
2017-12-24T02:24:56.444Z,7.16
2017-12-24T02:26:01.265Z,7.14
2017-12-24T02:27:06.010Z,7.14
2017-12-24T02:28:11.077Z,7.09
2017-12-24T02:29:15.815Z,7.08
2017-12-24T02:30:20.801Z,7.10
2017-12-24T02:31:25.572Z,7.10
2017-12-24T02:32:30.374Z,7.13
2017-12-24T02:33:35.162Z,7.11
2017-12-24T02:34:40.590Z,7.07
2017-12-24T02:35:45.336Z,7.09
2017-12-24T02:36:50.061Z,7.01
2017-12-24T02:37:54.794Z,7.10
2017-12-24T02:38:59.561Z,7.02
2017-12-24T02:40:04.297Z,7.06
2017-12-24T02:41:09.543Z,7.14
2017-12-24T02:42:14.517Z,7.06
2017-12-24T02:43:19.290Z,7.16
2017-12-24T02:44:24.033Z,7.07
2017-12-24T02:45:28.798Z,7.08
2017-12-24T02:46:33.539Z,7.02
2017-12-24T02:47:38.657Z,7.01
2017-12-24T02:48:43.418Z,7.07
2017-12-24T02:49:48.191Z,7.05
2017-12-24T02:50:52.958Z,7.00
2017-12-24T02:53:07.596Z,6.95
2017-12-24T02:54:12.813Z,6.99
2017-12-24T02:55:17.581Z,7.00
2017-12-24T02:56:22.311Z,7.01
2017-12-24T02:57:27.077Z,7.04
2017-12-24T02:58:31.793Z,7.05
2017-12-24T02:59:36.678Z,7.03
2017-12-24T03:00:41.664Z,6.97
2017-12-24T03:01:46.369Z,6.91
2017-12-24T03:02:51.032Z,6.85
2017-12-24T03:03:55.736Z,6.88
2017-12-24T03:05:00.772Z,6.90
2017-12-24T03:06:05.498Z,6.88
2017-12-24T03:07:10.656Z,6.95
2017-12-24T03:08:15.299Z,6.94
2017-12-24T03:09:19.909Z,6.88
2017-12-24T03:10:24.512Z,6.91
2017-12-24T03:11:29.173Z,6.92
2017-12-24T03:12:33.821Z,6.95
2017-12-24T03:13:39.141Z,6.89
2017-12-24T03:14:43.778Z,6.86
2017-12-24T03:15:48.498Z,6.96
2017-12-24T03:16:53.149Z,6.95
2017-12-24T03:17:57.613Z,6.90
2017-12-24T03:19:02.436Z,6.88
2017-12-24T03:20:07.482Z,6.92
2017-12-24T03:21:12.208Z,6.98
2017-12-24T03:22:17.878Z,6.92
2017-12-24T03:23:23.343Z,6.84
2017-12-24T03:24:28.148Z,6.90
2017-12-24T03:25:32.893Z,6.84
2017-12-24T03:26:38.041Z,6.80
2017-12-24T03:27:42.773Z,6.81
2017-12-24T03:28:47.553Z,6.85
2017-12-24T03:29:52.250Z,6.94
2017-12-24T03:30:56.988Z,6.97
2017-12-24T03:32:01.705Z,6.87
2017-12-24T03:33:06.825Z,6.90
2017-12-24T03:34:12.097Z,6.89
2017-12-24T03:35:19.245Z,6.78
2017-12-24T03:36:24.542Z,6.85
2017-12-24T03:37:30.236Z,6.84
2017-12-24T03:38:35.912Z,6.76
2017-12-24T03:39:41.836Z,6.74
2017-12-24T03:40:47.552Z,6.81
2017-12-24T03:41:52.892Z,6.79
2017-12-24T03:43:00.654Z,6.82
2017-12-24T03:44:06.791Z,6.87
2017-12-24T03:45:11.758Z,6.80
2017-12-24T03:46:17.213Z,6.81
2017-12-24T03:47:23.900Z,6.85
2017-12-24T03:48:29.202Z,6.81
2017-12-24T03:49:34.021Z,6.86
2017-12-24T03:50:39.998Z,6.84
2017-12-24T03:51:45.921Z,6.83
2017-12-24T03:52:52.034Z,6.79
2017-12-24T03:53:57.790Z,6.81
2017-12-24T03:55:02.459Z,6.77
2017-12-24T03:56:07.800Z,6.82
2017-12-24T03:57:12.506Z,6.88
2017-12-24T03:58:17.156Z,6.83
2017-12-24T03:59:22.250Z,6.86
2017-12-24T04:00:26.989Z,6.86
2017-12-24T04:01:31.731Z,6.89
2017-12-24T04:02:36.896Z,6.78
2017-12-24T04:03:42.020Z,6.84
2017-12-24T04:04:46.565Z,6.80
2017-12-24T04:05:51.707Z,6.85
2017-12-24T04:06:56.516Z,6.85
2017-12-24T04:08:01.227Z,6.87
2017-12-24T04:09:06.547Z,6.91
2017-12-24T04:10:11.291Z,6.90
2017-12-24T04:11:15.996Z,6.88
2017-12-24T04:12:21.173Z,6.89
2017-12-24T04:13:25.875Z,6.85
2017-12-24T04:14:30.633Z,6.84
2017-12-24T04:15:35.449Z,6.89
2017-12-24T04:16:40.283Z,6.91
2017-12-24T04:17:45.751Z,6.96
2017-12-24T04:18:51.055Z,6.94
2017-12-24T04:19:55.773Z,6.88
2017-12-24T04:21:00.506Z,6.84
2017-12-24T04:22:05.273Z,6.84
2017-12-24T04:23:10.001Z,6.84
2017-12-24T04:24:14.681Z,6.91
2017-12-24T04:25:19.900Z,6.86
2017-12-24T04:26:25.611Z,6.79
2017-12-24T04:27:30.320Z,6.79
2017-12-24T04:28:35.026Z,6.78
2017-12-24T04:29:39.750Z,6.85
2017-12-24T04:30:44.341Z,6.85
2017-12-24T04:31:52.159Z,6.90
2017-12-24T04:32:56.826Z,6.90
2017-12-24T04:34:01.810Z,6.89
2017-12-24T04:35:06.590Z,6.89
2017-12-24T04:36:11.305Z,6.93
2017-12-24T04:37:16.062Z,6.92
2017-12-24T04:38:21.117Z,6.87
2017-12-24T04:39:25.772Z,6.94
2017-12-24T04:40:30.478Z,6.95
2017-12-24T04:41:35.158Z,7.00
2017-12-24T04:42:39.864Z,7.04
2017-12-24T04:43:44.682Z,7.01
2017-12-24T04:44:49.852Z,6.91
2017-12-24T04:45:54.575Z,6.85
2017-12-24T04:47:05.129Z,6.95
2017-12-24T04:48:09.757Z,6.91
2017-12-24T04:49:14.391Z,6.83
2017-12-24T04:50:19.048Z,6.78
2017-12-24T04:51:24.044Z,6.78
2017-12-24T04:52:29.568Z,6.80
2017-12-24T04:53:34.230Z,6.81
2017-12-24T04:54:38.899Z,6.75
2017-12-24T04:55:44.034Z,6.82
2017-12-24T04:56:48.768Z,6.88
2017-12-24T04:57:53.890Z,6.95
2017-12-24T04:58:58.879Z,6.90
2017-12-24T05:00:03.727Z,6.90
2017-12-24T05:01:08.459Z,6.83
2017-12-24T05:02:13.267Z,6.88
2017-12-24T05:03:18.065Z,6.94
2017-12-24T05:04:24.124Z,6.85
2017-12-24T05:05:28.901Z,6.87
2017-12-24T05:06:33.621Z,6.84
2017-12-24T05:07:38.373Z,6.80
2017-12-24T05:08:43.107Z,6.76
2017-12-24T05:09:48.564Z,6.77
2017-12-24T05:10:53.777Z,6.74
2017-12-24T05:11:58.515Z,6.75
2017-12-24T05:13:03.250Z,6.71
2017-12-24T05:14:07.983Z,6.75
2017-12-24T05:15:12.967Z,6.79
2017-12-24T05:16:17.755Z,6.76
2017-12-24T05:17:23.546Z,6.74
2017-12-24T05:18:28.316Z,6.88
2017-12-24T05:19:33.318Z,6.85
2017-12-24T05:20:37.979Z,6.79
2017-12-24T05:21:42.600Z,6.83
2017-12-24T05:22:47.179Z,6.76
2017-12-24T05:23:52.126Z,6.75
2017-12-24T05:24:56.648Z,6.78
2017-12-24T05:26:01.190Z,6.75
2017-12-24T05:27:06.849Z,6.77
2017-12-24T05:28:11.622Z,6.82
2017-12-24T05:29:16.414Z,6.83
2017-12-24T05:30:21.618Z,6.82
2017-12-24T05:31:26.349Z,6.81
2017-12-24T05:32:31.097Z,6.86
2017-12-24T05:33:35.809Z,6.84
2017-12-24T05:34:40.537Z,6.87
2017-12-24T05:35:45.289Z,6.81
2017-12-24T05:36:50.316Z,6.85
2017-12-24T05:37:55.615Z,6.90
2017-12-24T05:39:00.302Z,6.79
2017-12-24T05:40:04.999Z,6.91
2017-12-24T05:41:09.603Z,6.84
2017-12-24T05:42:14.318Z,6.89
2017-12-24T05:43:19.389Z,6.92
2017-12-24T05:44:24.077Z,6.85
2017-12-24T05:45:28.803Z,6.96
2017-12-24T05:46:33.466Z,7.08
2017-12-24T05:47:38.144Z,7.02
2017-12-24T05:48:42.788Z,6.90
2017-12-24T05:49:47.513Z,6.88
2017-12-24T05:50:52.199Z,6.89
2017-12-24T05:51:57.016Z,6.93
2017-12-24T05:53:01.656Z,6.94
2017-12-24T05:54:06.299Z,6.97
2017-12-24T05:55:10.964Z,6.95
2017-12-24T05:56:16.277Z,6.96
2017-12-24T05:57:21.030Z,6.95
2017-12-24T05:58:25.834Z,6.94
2017-12-24T05:59:30.538Z,6.95
2017-12-24T06:00:35.290Z,6.90
2017-12-24T06:01:40.025Z,6.87
2017-12-24T06:02:45.142Z,6.88
2017-12-24T06:03:49.841Z,6.84
2017-12-24T06:04:54.546Z,6.95
2017-12-24T06:05:59.247Z,6.94
2017-12-24T06:07:04.072Z,6.87
2017-12-24T06:08:08.822Z,6.92
2017-12-24T06:09:14.628Z,6.90
2017-12-24T06:10:19.340Z,6.84
2017-12-24T06:11:24.092Z,6.80
2017-12-24T06:12:28.873Z,6.78
2017-12-24T06:13:33.592Z,6.81
2017-12-24T06:14:38.318Z,6.80
2017-12-24T06:15:43.589Z,6.74
2017-12-24T06:16:48.294Z,6.74
2017-12-24T06:17:53.098Z,6.75
2017-12-24T06:18:57.767Z,6.74
2017-12-24T06:20:03.379Z,6.71
2017-12-24T06:21:07.977Z,6.65
2017-12-24T06:22:12.946Z,6.62
2017-12-24T06:23:17.493Z,6.62
2017-12-24T06:24:22.054Z,6.70
2017-12-24T06:25:26.663Z,6.69
2017-12-24T06:26:31.244Z,6.62
2017-12-24T06:27:36.028Z,6.62
2017-12-24T06:28:41.091Z,6.63
2017-12-24T06:29:45.892Z,6.70
2017-12-24T06:30:50.628Z,6.59
2017-12-24T06:31:55.663Z,6.60
2017-12-24T06:33:00.389Z,6.66
2017-12-24T06:34:05.214Z,6.69
2017-12-24T06:35:10.409Z,6.67
2017-12-24T06:36:15.198Z,6.70
2017-12-24T06:37:19.963Z,6.65
2017-12-24T06:38:24.904Z,6.68
2017-12-24T06:39:29.727Z,6.58
2017-12-24T06:40:34.440Z,6.63
2017-12-24T06:41:40.104Z,6.61
2017-12-24T06:42:44.843Z,6.60
2017-12-24T06:43:49.588Z,6.65
2017-12-24T06:44:54.364Z,6.67
2017-12-24T06:45:59.140Z,6.67
2017-12-24T06:47:03.913Z,6.61
2017-12-24T06:48:09.043Z,6.59
2017-12-24T06:49:13.789Z,6.57
2017-12-24T06:50:18.600Z,6.59
2017-12-24T06:51:23.327Z,6.57
2017-12-24T06:52:27.935Z,6.57
2017-12-24T06:53:32.509Z,6.57
2017-12-24T06:54:37.504Z,6.56
2017-12-24T06:55:42.530Z,6.51
2017-12-24T06:56:47.177Z,6.51
2017-12-24T06:57:51.769Z,6.51
2017-12-24T06:58:56.492Z,6.58
2017-12-24T07:00:01.261Z,6.53
2017-12-24T07:01:06.480Z,6.62
2017-12-24T07:02:11.219Z,6.67
2017-12-24T07:03:16.168Z,6.59
2017-12-24T07:04:20.854Z,6.59
2017-12-24T07:05:25.650Z,6.57
2017-12-24T07:06:30.448Z,6.62
2017-12-24T07:07:35.648Z,6.63
2017-12-24T07:08:40.376Z,6.71
2017-12-24T07:09:45.169Z,6.63
2017-12-24T07:10:49.955Z,6.62
2017-12-24T07:11:54.553Z,6.67
2017-12-24T07:12:59.118Z,6.70
2017-12-24T07:14:04.145Z,6.69
2017-12-24T07:15:08.725Z,6.64
2017-12-24T07:16:13.831Z,6.62
2017-12-24T07:17:18.421Z,6.69
2017-12-24T07:18:23.027Z,6.73
2017-12-24T07:19:27.649Z,6.73
2017-12-24T07:20:32.659Z,6.76
2017-12-24T07:21:37.231Z,6.79
2017-12-24T07:22:41.805Z,6.77
2017-12-24T07:23:46.415Z,6.81
2017-12-24T07:24:51.016Z,6.77
2017-12-24T07:25:56.084Z,6.68
2017-12-24T07:27:00.858Z,6.78
2017-12-24T07:28:05.598Z,6.75
2017-12-24T07:29:11.355Z,6.74
2017-12-24T07:30:16.153Z,6.71
2017-12-24T07:31:20.878Z,6.77
2017-12-24T07:32:27.034Z,6.77
2017-12-24T07:33:31.783Z,6.79
2017-12-24T07:34:36.597Z,6.84
2017-12-24T07:35:41.308Z,6.81
2017-12-24T07:36:46.151Z,6.76
2017-12-24T07:37:51.175Z,6.81
2017-12-24T07:38:56.260Z,6.76
2017-12-24T07:40:01.015Z,6.74
2017-12-24T07:41:05.785Z,6.79
2017-12-24T07:42:10.491Z,6.85
2017-12-24T07:43:15.304Z,6.83
2017-12-24T07:44:19.915Z,6.84
2017-12-24T07:45:24.911Z,6.80
2017-12-24T07:46:29.565Z,6.75
2017-12-24T07:47:34.330Z,6.78
2017-12-24T07:48:39.185Z,6.85
2017-12-24T07:49:43.935Z,6.79
2017-12-24T07:50:48.696Z,6.86
2017-12-24T07:51:53.872Z,6.85
2017-12-24T07:52:59.803Z,6.90
2017-12-24T07:54:04.506Z,6.89
2017-12-24T07:55:09.316Z,6.87
2017-12-24T07:56:14.091Z,6.77
2017-12-24T07:57:18.820Z,6.81
2017-12-24T07:58:24.075Z,6.76
2017-12-24T07:59:28.815Z,6.84
2017-12-24T08:00:33.549Z,6.84
2017-12-24T08:01:38.447Z,6.78
2017-12-24T08:02:43.173Z,6.80
2017-12-24T08:03:47.938Z,6.79
2017-12-24T08:04:53.123Z,6.76
2017-12-24T08:05:57.932Z,6.81
2017-12-24T08:07:03.901Z,6.83
2017-12-24T08:08:08.616Z,6.85
2017-12-24T08:09:13.362Z,6.77
2017-12-24T08:10:17.991Z,6.79
2017-12-24T08:11:23.122Z,6.76
2017-12-24T08:12:27.776Z,6.83
2017-12-24T08:13:32.495Z,6.82
2017-12-24T08:14:37.242Z,6.81
2017-12-24T08:15:42.137Z,6.87
2017-12-24T08:16:46.941Z,6.86
2017-12-24T08:17:52.107Z,6.89
2017-12-24T08:18:56.818Z,6.82
2017-12-24T08:20:01.604Z,6.87
2017-12-24T08:21:06.320Z,6.85
2017-12-24T08:22:11.049Z,6.89
2017-12-24T08:23:15.888Z,6.94
2017-12-24T08:24:21.192Z,6.87
2017-12-24T08:25:25.914Z,6.86
2017-12-24T08:26:30.624Z,6.82
2017-12-24T08:27:35.391Z,6.81
2017-12-24T08:28:40.102Z,6.88
2017-12-24T08:29:44.879Z,6.89
2017-12-24T08:30:50.184Z,6.92
2017-12-24T08:31:54.949Z,6.86
2017-12-24T08:32:59.705Z,6.86
2017-12-24T08:34:04.487Z,6.86
2017-12-24T08:35:09.263Z,6.85
2017-12-24T08:36:14.036Z,6.83
2017-12-24T08:37:19.075Z,6.83
2017-12-24T08:38:23.655Z,6.75
2017-12-24T08:39:28.967Z,6.72
2017-12-24T08:40:33.587Z,6.78
2017-12-24T08:41:38.299Z,6.79
2017-12-24T08:42:42.904Z,6.76
2017-12-24T08:43:47.757Z,6.73
2017-12-24T08:44:52.317Z,6.81
2017-12-24T08:45:56.997Z,6.66
2017-12-24T08:47:01.711Z,6.71
2017-12-24T08:48:07.462Z,6.71
2017-12-24T08:49:12.237Z,6.68
2017-12-24T08:50:17.305Z,6.74
2017-12-24T08:51:21.965Z,6.73
2017-12-24T08:52:26.625Z,6.67
2017-12-24T08:53:31.338Z,6.72
2017-12-24T08:54:36.078Z,6.67
2017-12-24T08:55:40.883Z,6.82
2017-12-24T08:56:45.891Z,6.86
2017-12-24T08:57:50.615Z,6.71
2017-12-24T08:58:55.381Z,6.74
2017-12-24T09:00:00.213Z,6.70
2017-12-24T09:01:05.000Z,6.72
2017-12-24T09:02:10.299Z,6.77
2017-12-24T09:03:15.103Z,6.72
2017-12-24T09:04:20.027Z,6.74
2017-12-24T09:05:24.857Z,6.82
2017-12-24T09:06:29.601Z,6.78
2017-12-24T09:07:34.427Z,6.87
2017-12-24T09:08:44.270Z,6.96
2017-12-24T09:09:48.893Z,6.83
2017-12-24T09:10:53.524Z,6.77
2017-12-24T09:11:58.126Z,6.81
2017-12-24T09:13:02.893Z,6.88
2017-12-24T09:14:07.707Z,6.78
2017-12-24T09:15:13.137Z,6.75
2017-12-24T09:16:17.908Z,6.78
2017-12-24T09:17:22.964Z,6.81
2017-12-24T09:18:27.712Z,6.82
2017-12-24T09:19:32.544Z,6.73
2017-12-24T09:20:37.340Z,6.86
2017-12-24T09:21:42.612Z,6.84
2017-12-24T09:22:47.386Z,6.79
2017-12-24T09:23:52.077Z,6.78
2017-12-24T09:24:57.232Z,6.75
2017-12-24T09:26:01.964Z,6.79
2017-12-24T09:27:06.920Z,6.77
2017-12-24T09:28:12.350Z,6.89
2017-12-24T09:29:16.962Z,6.89
2017-12-24T09:30:21.523Z,6.85
2017-12-24T09:31:26.098Z,6.81
2017-12-24T09:32:30.676Z,6.75
2017-12-24T09:33:37.529Z,6.70
2017-12-24T09:34:42.981Z,6.72
2017-12-24T09:35:49.117Z,6.78
2017-12-24T09:36:53.886Z,6.76
2017-12-24T09:37:58.621Z,6.78
2017-12-24T09:39:04.361Z,6.77
2017-12-24T09:40:09.144Z,6.80
2017-12-24T09:41:14.301Z,6.74
2017-12-24T09:42:19.118Z,6.80
2017-12-24T09:43:24.043Z,6.84
2017-12-24T09:44:28.866Z,6.80
2017-12-24T09:45:33.644Z,6.82
2017-12-24T09:46:38.516Z,6.78
2017-12-24T09:47:43.392Z,6.70
2017-12-24T09:48:48.174Z,6.65
2017-12-24T09:49:53.051Z,6.75
2017-12-24T09:50:57.644Z,6.72
2017-12-24T09:52:02.322Z,6.72
2017-12-24T09:53:06.946Z,6.70
2017-12-24T09:54:13.424Z,6.70
2017-12-24T09:55:18.062Z,6.65
2017-12-24T09:56:22.698Z,6.70
2017-12-24T09:57:27.327Z,6.67
2017-12-24T09:58:31.979Z,6.73
2017-12-24T09:59:36.708Z,6.82
2017-12-24T10:00:42.659Z,6.84
2017-12-24T10:01:47.440Z,6.76
2017-12-24T10:02:52.221Z,6.75
2017-12-24T10:03:57.546Z,6.76
2017-12-24T10:05:02.482Z,6.71
2017-12-24T10:06:07.135Z,6.80
2017-12-24T10:07:12.169Z,6.88
2017-12-24T10:08:16.943Z,6.93
2017-12-24T10:09:21.799Z,6.85
2017-12-24T10:10:26.942Z,6.95
2017-12-24T10:11:31.744Z,6.92
2017-12-24T10:12:36.355Z,6.89
2017-12-24T10:13:41.261Z,6.95
2017-12-24T10:14:45.915Z,6.97
2017-12-24T10:15:50.665Z,6.99
2017-12-24T10:16:55.442Z,6.95
2017-12-24T10:18:00.183Z,6.86
2017-12-24T10:19:05.143Z,6.81
2017-12-24T10:20:10.191Z,6.88
2017-12-24T10:21:14.998Z,6.81
2017-12-24T10:22:19.903Z,6.94
2017-12-24T10:23:24.658Z,6.96
2017-12-24T10:24:29.258Z,6.95
2017-12-24T10:25:33.872Z,6.94
2017-12-24T10:26:38.774Z,7.05
2017-12-24T10:27:43.438Z,7.06
2017-12-24T10:28:48.106Z,7.09
2017-12-24T10:29:52.918Z,6.98
2017-12-24T10:30:57.660Z,6.99
2017-12-24T10:32:02.461Z,6.99
2017-12-24T10:33:08.532Z,6.99
2017-12-24T10:34:13.350Z,7.03
2017-12-24T10:35:18.152Z,7.05
2017-12-24T10:36:23.302Z,7.09
2017-12-24T10:37:28.093Z,7.09
2017-12-24T10:38:32.828Z,7.04
2017-12-24T10:39:37.923Z,7.03
2017-12-24T10:40:42.673Z,7.04
2017-12-24T10:41:47.424Z,7.11
2017-12-24T10:42:52.093Z,7.10
2017-12-24T10:43:57.661Z,7.11
2017-12-24T10:45:02.470Z,7.08
2017-12-24T10:46:07.612Z,7.12
2017-12-24T10:47:12.669Z,7.10
2017-12-24T10:48:17.505Z,7.10
2017-12-24T10:49:22.096Z,7.16
2017-12-24T10:50:27.276Z,7.25
2017-12-24T10:51:31.902Z,7.23
2017-12-24T10:52:36.993Z,7.18
2017-12-24T10:53:41.742Z,7.17
2017-12-24T10:54:46.500Z,7.20
2017-12-24T10:55:51.487Z,7.17
2017-12-24T10:56:56.151Z,7.22
2017-12-24T10:58:00.806Z,7.20
2017-12-24T10:59:05.577Z,7.22
2017-12-24T11:00:10.421Z,7.33
2017-12-24T11:01:15.753Z,7.37
2017-12-24T11:02:20.386Z,7.41
2017-12-24T11:03:25.747Z,7.32
2017-12-24T11:04:30.446Z,7.28
2017-12-24T11:05:35.507Z,7.35
2017-12-24T11:06:40.313Z,7.29
2017-12-24T11:07:46.038Z,7.29
2017-12-24T11:08:51.193Z,7.29
2017-12-24T11:09:55.966Z,7.34
2017-12-24T11:11:00.821Z,7.31
2017-12-24T11:12:06.041Z,7.31
2017-12-24T11:13:11.504Z,7.43
2017-12-24T11:14:16.263Z,7.35
2017-12-24T11:15:22.670Z,7.41
2017-12-24T11:16:27.555Z,7.40
2017-12-24T11:17:32.382Z,7.42
2017-12-24T11:18:37.246Z,7.41
2017-12-24T11:19:42.130Z,7.37
2017-12-24T11:20:46.858Z,7.36
2017-12-24T11:21:51.604Z,7.29
2017-12-24T11:22:56.383Z,7.27
2017-12-24T11:24:01.432Z,7.30
2017-12-24T11:25:06.189Z,7.40
2017-12-24T11:26:10.972Z,7.36
2017-12-24T11:27:15.756Z,7.35
2017-12-24T11:28:20.540Z,7.35
2017-12-24T11:29:25.340Z,7.31
2017-12-24T11:30:30.380Z,7.32
2017-12-24T11:31:35.144Z,7.35
2017-12-24T11:32:39.868Z,7.29
2017-12-24T11:33:44.662Z,7.43
2017-12-24T11:34:49.538Z,7.36
2017-12-24T11:35:54.612Z,7.35
2017-12-24T11:36:59.768Z,7.39
2017-12-24T11:38:04.574Z,7.45
2017-12-24T11:39:09.231Z,7.50
2017-12-24T11:40:13.962Z,7.44
2017-12-24T11:41:18.775Z,7.45
2017-12-24T11:42:23.532Z,7.40
2017-12-24T11:43:29.507Z,7.42
2017-12-24T11:44:34.258Z,7.51
2017-12-24T11:45:39.041Z,7.51
2017-12-24T11:46:44.048Z,7.45
2017-12-24T11:47:48.795Z,7.43
2017-12-24T11:48:53.553Z,7.47
2017-12-24T11:49:58.549Z,7.54
2017-12-24T11:51:03.329Z,7.48
2017-12-24T11:52:08.163Z,7.49
2017-12-24T11:53:12.892Z,7.42
2017-12-24T11:54:18.154Z,7.40
2017-12-24T11:55:22.960Z,7.38
2017-12-24T11:56:28.004Z,7.45
2017-12-24T11:57:32.794Z,7.50
2017-12-24T11:58:37.637Z,7.47
2017-12-24T11:59:42.975Z,7.49
2017-12-24T12:00:47.740Z,7.50
2017-12-24T12:01:52.526Z,7.49
2017-12-24T12:02:57.981Z,7.61
2017-12-24T12:04:02.783Z,7.53
2017-12-24T12:05:07.566Z,7.44
2017-12-24T12:06:12.316Z,7.49
2017-12-24T12:07:17.110Z,7.45
2017-12-24T12:08:21.922Z,7.51
2017-12-24T12:09:27.007Z,7.42
2017-12-24T12:10:31.704Z,7.45
2017-12-24T12:11:36.486Z,7.42
2017-12-24T12:12:41.262Z,7.46
2017-12-24T12:13:46.266Z,7.44
2017-12-24T12:14:51.109Z,7.44
2017-12-24T12:15:56.725Z,7.45
2017-12-24T12:17:01.720Z,7.50
2017-12-24T12:18:06.483Z,7.56
2017-12-24T12:19:11.346Z,7.55
2017-12-24T12:20:16.328Z,7.54
2017-12-24T12:21:21.920Z,7.47
2017-12-24T12:22:27.229Z,7.54
2017-12-24T12:23:31.937Z,7.56
2017-12-24T12:24:36.666Z,7.56
2017-12-24T12:25:41.448Z,7.49
2017-12-24T12:26:46.050Z,7.53
2017-12-24T12:27:50.646Z,7.61
2017-12-24T12:28:55.555Z,7.56
2017-12-24T12:30:00.213Z,7.60
2017-12-24T12:31:04.811Z,7.59
2017-12-24T12:32:09.450Z,7.57
2017-12-24T12:33:14.239Z,7.60
2017-12-24T12:34:19.081Z,7.54
2017-12-24T12:35:24.186Z,7.55
2017-12-24T12:36:28.965Z,7.46
2017-12-24T12:37:33.765Z,7.54
2017-12-24T12:38:38.533Z,7.49
2017-12-24T12:39:43.243Z,7.61
2017-12-24T12:40:47.974Z,7.62
2017-12-24T12:41:53.057Z,7.64
2017-12-24T12:42:57.894Z,7.50
2017-12-24T12:44:02.478Z,7.44
2017-12-24T12:45:07.217Z,7.41
2017-12-24T12:46:12.577Z,7.48
2017-12-24T12:47:17.400Z,7.51
2017-12-24T12:48:22.982Z,7.49
2017-12-24T12:49:28.476Z,7.50
2017-12-24T12:50:33.362Z,7.46
2017-12-24T12:51:38.445Z,7.51
2017-12-24T12:52:44.184Z,7.47
2017-12-24T12:53:48.865Z,7.40
2017-12-24T12:54:53.989Z,7.45
2017-12-24T12:55:58.702Z,7.51
2017-12-24T12:57:03.411Z,7.45
2017-12-24T12:58:08.096Z,7.41
2017-12-24T12:59:12.911Z,7.51
2017-12-24T13:00:17.711Z,7.58
2017-12-24T13:01:22.803Z,7.49
2017-12-24T13:02:27.516Z,7.54
2017-12-24T13:03:32.375Z,7.56
2017-12-24T13:04:37.683Z,7.49
2017-12-24T13:05:42.373Z,7.50
2017-12-24T13:06:47.166Z,7.52
2017-12-24T13:07:52.634Z,7.61
2017-12-24T13:08:57.432Z,7.66
2017-12-24T13:10:02.386Z,7.49
2017-12-24T13:11:08.202Z,7.43
2017-12-24T13:12:12.825Z,7.53
2017-12-24T13:13:18.338Z,7.47
2017-12-24T13:14:23.474Z,7.46
2017-12-24T13:15:28.064Z,7.47
2017-12-24T13:16:32.688Z,7.49
2017-12-24T13:17:37.243Z,7.55
2017-12-24T13:18:41.840Z,7.60
2017-12-24T13:19:46.613Z,7.54
2017-12-24T13:20:51.878Z,7.47
2017-12-24T13:21:56.704Z,7.53
2017-12-24T13:23:01.498Z,7.58
2017-12-24T13:24:06.295Z,7.49
2017-12-24T13:25:11.174Z,7.57
2017-12-24T13:26:15.997Z,7.46
2017-12-24T13:27:21.101Z,7.46
2017-12-24T13:28:26.380Z,7.48
2017-12-24T13:29:31.084Z,7.53
2017-12-24T13:30:35.912Z,7.55
2017-12-24T13:31:40.647Z,7.46
2017-12-24T13:32:47.114Z,7.53
2017-12-24T13:33:52.059Z,7.51
2017-12-24T13:34:59.419Z,7.49
2017-12-24T13:36:04.232Z,7.56
2017-12-24T13:37:09.168Z,7.50
2017-12-24T13:38:14.555Z,7.59
2017-12-24T13:39:19.263Z,7.58
2017-12-24T13:40:24.153Z,7.63
2017-12-24T13:41:28.942Z,7.56
2017-12-24T13:42:33.629Z,7.56
2017-12-24T13:43:38.438Z,7.53
2017-12-24T13:44:43.114Z,7.49
2017-12-24T13:45:47.821Z,7.54
2017-12-24T13:46:52.784Z,7.50
2017-12-24T13:47:57.652Z,7.53
2017-12-24T13:49:03.098Z,7.58
2017-12-24T13:50:07.882Z,7.59
2017-12-24T13:51:12.737Z,7.60
2017-12-24T13:52:17.606Z,7.58
2017-12-24T13:53:22.731Z,7.65
2017-12-24T13:54:27.518Z,7.53
2017-12-24T13:55:33.229Z,7.45
2017-12-24T13:56:38.008Z,7.41
2017-12-24T13:57:42.752Z,7.37
2017-12-24T13:58:47.617Z,7.41
2017-12-24T13:59:52.619Z,7.49
2017-12-24T14:00:57.457Z,7.38
2017-12-24T14:02:02.529Z,7.34
2017-12-24T14:03:07.297Z,7.45
2017-12-24T14:04:12.098Z,7.40
2017-12-24T14:05:16.953Z,7.32
2017-12-24T14:06:22.055Z,7.28
2017-12-24T14:07:26.853Z,7.23
2017-12-24T14:08:31.689Z,7.20
2017-12-24T14:09:36.403Z,7.25
2017-12-24T14:10:41.216Z,7.22
2017-12-24T14:11:46.098Z,7.29
2017-12-24T14:12:51.105Z,7.31
2017-12-24T14:13:55.823Z,7.28
2017-12-24T14:15:00.553Z,7.43
2017-12-24T14:16:05.139Z,7.25
2017-12-24T14:17:09.720Z,7.33
2017-12-24T14:18:14.539Z,7.31
2017-12-24T14:19:19.466Z,7.32
2017-12-24T14:20:24.585Z,7.34
2017-12-24T14:21:29.620Z,7.39
2017-12-24T14:22:34.244Z,7.29
2017-12-24T14:23:38.972Z,7.32
2017-12-24T14:24:44.180Z,7.31